This is the latest recevied weather packets stored in our database for station/object E7HQ-1. If no packets are shown the sender has not sent any weather packets the latest 10 day(s).
| Time | Temp. | Humidity | Pressure | Rain* | Wind** | Luminosity | Snow |
|---|---|---|---|---|---|---|---|
| 1778229214 | 18.89° C | 54% | 1027.3 hPa | - | - | - | - |
| 1778228295 | 18.33° C | 55% | 1027.3 hPa | - | - | - | - |
| 1778227376 | 17.22° C | 58% | 1027.4 hPa | - | - | - | - |
| 1778226445 | 16.11° C | 60% | 1027.2 hPa | - | - | - | - |
| 1778225520 | 15° C | 65% | 1027.2 hPa | - | - | - | - |
| 1778224585 | 14.44° C | 63% | 1027.3 hPa | - | - | - | - |
| 1778223655 | 14.44° C | 64% | 1027.2 hPa | - | - | - | - |
| 1778222755 | 14.44° C | 63% | 1027.2 hPa | - | - | - | - |
| 1778221855 | 13.89° C | 65% | 1027.3 hPa | - | - | - | - |
| 1778220955 | 13.33° C | 66% | 1027.4 hPa | - | - | - | - |
| 1778220054 | 13.33° C | 66% | 1027.3 hPa | - | - | - | - |
| 1778219154 | 13.33° C | 66% | 1027.3 hPa | - | - | - | - |
| 1778218254 | 12.22° C | 67% | 1027.3 hPa | - | - | - | - |
| 1778217354 | 12.22° C | 68% | 1027.4 hPa | - | - | - | - |
| 1778216453 | 11.67° C | 67% | 1027.4 hPa | - | - | - | - |
| 1778215553 | 11.11° C | 69% | 1027.5 hPa | - | - | - | - |
| 1778214653 | 11.11° C | 69% | 1027.5 hPa | - | - | - | - |
| 1778213753 | 10.56° C | 69% | 1027.4 hPa | - | - | - | - |
| 1778212853 | 10.56° C | 70% | 1027.3 hPa | - | - | - | - |
| 1778211952 | 10.56° C | 70% | 1027.3 hPa | - | - | - | - |
| 1778211052 | 10.56° C | 70% | 1027.2 hPa | - | - | - | - |
| 1778210152 | 10.56° C | 69% | 1027.1 hPa | - | - | - | - |
| 1778209251 | 10.56° C | 71% | 1027.1 hPa | - | - | - | - |
| 1778208350 | 10.56° C | 72% | 1027.1 hPa | - | - | - | - |
| 1778207453 | 10.56° C | 72% | 1027.1 hPa | - | - | - | - |
* Rain since midnight (hover to see other rain measurements)
** Current wind speed in m/s (hover to see current wind gust speed)